Terminal Aerodrome Forecast
Issued by NWS

Home | Current Version | Previous Version | Text Only | Print | Product List | Glossary On
Versions: 1 2 3 4 5 6 7 8 9 10 11 12 13
000
FTUS43 KDDC 301201 RRA
TAFHYS
TAF
KHYS 301201Z 3012/0112 31012KT P6SM SCT200
     FM301600 30017G27KT P6SM FEW200
     FM302300 31013KT P6SM FEW250=

USA.gov is the U.S. government's official web portal to all federal, state and local government web resources and services.